Time;durP1;ratioP1;P1;durP2;ratioP2;P2;SDS_P1;SDS_P2;PMS_P1;PMS_P2;Temp;Humidity;BMP_temperature;BMP_pressure;BME280_temperature;BME280_humidity;BME280_pressure;Samples;Min_cycle;Max_cycle;Signal;HPM_P1;HPM_P2
2022/06/18 00:02:09;;;;;;;0.30;0.30;;;20.50;90.30;;;;;;4302296;33;20108;-69
2022/06/18 00:04:35;;;;;;;0.30;0.30;;;20.40;90.30;;;;;;4300827;33;20080;-69
2022/06/18 00:07:04;;;;;;;0.43;0.43;;;20.50;90.30;;;;;;4302203;33;20059;-69
2022/06/18 00:09:35;;;;;;;0.45;0.45;;;20.50;90.80;;;;;;4302814;33;20372;-69
2022/06/18 00:13:42;;;;;;;0.77;0.43;;;20.40;90.10;;;;;;4300991;33;20068;-69
2022/06/18 00:14:56;;;;;;;0.32;0.32;;;20.40;90.60;;;;;;4301188;33;20530;-69
2022/06/18 00:17:21;;;;;;;0.50;0.50;;;20.30;90.30;;;;;;4301896;33;20115;-69
2022/06/18 00:19:49;;;;;;;0.57;0.30;;;20.30;90.30;;;;;;4304439;33;20095;-69
2022/06/18 00:22:18;;;;;;;0.47;0.47;;;20.30;90.30;;;;;;4282811;33;20227;-68
2022/06/18 00:24:44;;;;;;;0.30;0.30;;;20.30;90.40;;;;;;4294700;33;20085;-69
2022/06/18 00:27:13;;;;;;;0.47;0.47;;;20.30;90.60;;;;;;4300785;33;20084;-69
2022/06/18 00:29:38;;;;;;;0.50;0.50;;;20.30;90.70;;;;;;4301561;33;20134;-69
2022/06/18 00:32:05;;;;;;;0.32;0.32;;;20.30;90.70;;;;;;4301076;33;20064;-69
2022/06/18 00:34:30;;;;;;;0.47;0.47;;;20.20;90.80;;;;;;4303218;33;20548;-68
2022/06/18 00:36:57;;;;;;;0.32;0.32;;;20.20;90.60;;;;;;4303293;33;20094;-69
2022/06/18 00:39:23;;;;;;;0.37;0.37;;;20.20;90.80;;;;;;4304664;33;20064;-68
2022/06/18 00:41:53;;;;;;;0.40;0.40;;;20.10;90.70;;;;;;4302687;33;20084;-68
2022/06/18 00:44:27;;;;;;;;;;;20.10;91.20;;;;;;4300222;33;20151;-68
2022/06/18 00:47:24;;;;;;;0.30;0.30;;;19.90;91.00;;;;;;4299426;33;20400;-68
2022/06/18 00:50:17;;;;;;;0.50;0.50;;;19.80;91.60;;;;;;4301648;33;20160;-69
2022/06/18 00:52:59;;;;;;;0.30;0.30;;;19.80;91.80;;;;;;4276817;33;20475;-68
2022/06/18 00:55:31;;;;;;;0.30;0.30;;;19.70;92.10;;;;;;4296763;33;20583;-68
2022/06/18 00:58:02;;;;;;;1.55;1.20;;;19.70;91.60;;;;;;4300870;33;20156;-68
2022/06/18 01:00:47;;;;;;;0.32;0.32;;;19.80;91.60;;;;;;4301261;33;20067;-68
2022/06/18 01:03:31;;;;;;;0.95;0.73;;;19.80;91.70;;;;;;4300840;33;20115;-68
2022/06/18 01:06:02;;;;;;;0.30;0.30;;;19.70;91.80;;;;;;4300486;33;20120;-68
2022/06/18 01:08:31;;;;;;;0.40;0.40;;;19.70;91.60;;;;;;4302462;33;20060;-68
2022/06/18 01:11:00;;;;;;;0.30;0.30;;;19.70;92.10;;;;;;4288729;33;20080;-68
2022/06/18 01:13:32;;;;;;;0.65;0.65;;;19.60;92.10;;;;;;4302221;33;20084;-68
2022/06/18 01:15:58;;;;;;;0.30;0.30;;;19.60;92.40;;;;;;4302147;33;20817;-68
2022/06/18 01:18:24;;;;;;;0.40;0.40;;;19.50;92.60;;;;;;4303166;33;20089;-68
2022/06/18 01:20:52;;;;;;;0.30;0.30;;;19.50;92.30;;;;;;4296062;33;20064;-68
2022/06/18 01:23:56;;;;;;;4.30;1.12;;;19.40;92.60;;;;;;4274586;33;20087;-68
2022/06/18 01:26:21;;;;;;;0.40;0.40;;;19.40;92.60;;;;;;4298352;33;20100;-68
2022/06/18 01:28:47;;;;;;;0.45;0.45;;;19.40;92.40;;;;;;4302443;33;20087;-68
2022/06/18 01:31:12;;;;;;;0.37;0.37;;;19.30;92.90;;;;;;4296282;33;83847;-68
2022/06/18 01:33:39;;;;;;;0.40;0.40;;;19.40;92.00;;;;;;4300575;33;20095;-68
2022/06/18 01:36:08;;;;;;;0.35;0.35;;;19.40;92.40;;;;;;4301110;33;20532;-68
2022/06/18 01:38:37;;;;;;;0.65;0.45;;;19.30;92.80;;;;;;4300772;33;20160;-68
2022/06/18 01:42:13;;;;;;;0.43;0.40;;;19.20;92.80;;;;;;4301073;33;20092;-68
2022/06/18 01:44:05;;;;;;;1.42;0.95;;;19.20;92.90;;;;;;4298657;33;20104;-68
2022/06/18 01:46:32;;;;;;;0.75;0.75;;;19.20;92.90;;;;;;4297847;33;20092;-68
2022/06/18 01:48:59;;;;;;;0.35;0.35;;;19.10;93.00;;;;;;4299667;33;20068;-68
2022/06/18 01:51:32;;;;;;;0.30;0.30;;;19.00;93.20;;;;;;4291411;33;20216;-68
2022/06/18 01:54:05;;;;;;;0.65;0.65;;;19.00;93.20;;;;;;4283262;33;20221;-68
2022/06/18 01:56:40;;;;;;;0.55;0.43;;;19.10;92.50;;;;;;4300059;33;20601;-68
2022/06/18 01:59:23;;;;;;;2.40;1.12;;;19.10;92.40;;;;;;4301593;33;20064;-68
2022/06/18 02:01:50;;;;;;;0.43;0.43;;;19.30;92.20;;;;;;4301986;33;20148;-68
2022/06/18 02:04:18;;;;;;;0.40;0.40;;;19.30;92.10;;;;;;4299210;33;20107;-68
2022/06/18 02:06:45;;;;;;;0.40;0.40;;;19.30;92.30;;;;;;4301465;33;20092;-68
2022/06/18 02:09:28;;;;;;;0.40;0.40;;;19.20;92.50;;;;;;4301506;33;20106;-68
2022/06/18 02:11:58;;;;;;;0.37;0.37;;;19.00;92.60;;;;;;4299579;33;20123;-68
2022/06/18 02:14:25;;;;;;;0.52;0.52;;;19.00;92.80;;;;;;4301764;33;20583;-68
2022/06/18 02:16:53;;;;;;;0.40;0.40;;;18.90;92.70;;;;;;4300718;33;20141;-67
2022/06/18 02:19:20;;;;;;;0.50;0.50;;;18.90;93.00;;;;;;4303064;33;20076;-67
2022/06/18 02:21:56;;;;;;;0.43;0.43;;;18.80;93.50;;;;;;4282361;33;20198;-67
2022/06/18 02:24:21;;;;;;;0.60;0.57;;;18.80;93.00;;;;;;4286420;33;20083;-67
2022/06/18 02:26:48;;;;;;;0.40;0.40;;;18.80;93.00;;;;;;4303539;33;20080;-67
2022/06/18 02:29:20;;;;;;;0.45;0.45;;;18.80;92.90;;;;;;4294796;33;20088;-67
2022/06/18 02:31:45;;;;;;;0.35;0.35;;;18.80;93.00;;;;;;4301626;33;20080;-67
2022/06/18 02:34:15;;;;;;;0.62;0.62;;;18.70;93.60;;;;;;4302852;33;20084;-67
2022/06/18 02:36:41;;;;;;;0.43;0.43;;;18.70;93.10;;;;;;4301225;33;20442;-69
2022/06/18 02:39:28;;;;;;;0.65;0.65;;;18.70;92.90;;;;;;4302552;33;20150;-68
2022/06/18 02:42:01;;;;;;;0.40;0.40;;;18.70;93.40;;;;;;4303254;33;20088;-68
2022/06/18 02:44:27;;;;;;;1.05;0.50;;;18.60;93.30;;;;;;4304718;33;20573;-68
2022/06/18 02:46:52;;;;;;;0.40;0.40;;;18.60;93.80;;;;;;4304811;33;20084;-68
2022/06/18 02:49:18;;;;;;;0.40;0.40;;;18.50;94.10;;;;;;4303140;33;20064;-68
2022/06/18 02:51:45;;;;;;;3.53;1.25;;;18.50;94.10;;;;;;4289272;33;20072;-68
2022/06/18 02:54:10;;;;;;;0.35;0.35;;;18.40;93.50;;;;;;4286757;33;20079;-68
2022/06/18 02:56:36;;;;;;;0.40;0.40;;;18.50;93.40;;;;;;4301401;33;20100;-68
2022/06/18 02:59:04;;;;;;;0.50;0.50;;;18.50;93.70;;;;;;4303662;33;20072;-68
2022/06/18 03:01:32;;;;;;;0.32;0.32;;;18.50;93.70;;;;;;4302524;33;21421;-68
2022/06/18 03:03:59;;;;;;;2.15;1.05;;;18.50;93.60;;;;;;4302603;33;20103;-68
2022/06/18 03:06:28;;;;;;;0.40;0.40;;;18.40;93.90;;;;;;4303639;33;20140;-68
2022/06/18 03:08:55;;;;;;;0.47;0.45;;;18.40;93.80;;;;;;4289705;33;20117;-68
2022/06/18 03:12:23;;;;;;;0.30;0.30;;;18.30;94.30;;;;;;4301864;33;20080;-68
2022/06/18 03:14:09;;;;;;;0.65;0.65;;;18.20;94.50;;;;;;4301709;33;20091;-68
2022/06/18 03:16:35;;;;;;;0.62;0.50;;;18.10;94.50;;;;;;4289383;33;20475;-68
2022/06/18 03:19:03;;;;;;;0.28;0.28;;;18.10;94.40;;;;;;4304081;33;20092;-68
2022/06/18 03:21:50;;;;;;;0.30;0.30;;;18.10;94.30;;;;;;4287152;33;20068;-68
2022/06/18 03:24:15;;;;;;;0.40;0.40;;;18.10;94.80;;;;;;4285539;33;20146;-68
2022/06/18 03:26:41;;;;;;;0.35;0.35;;;18.10;94.80;;;;;;4300459;33;20120;-68
2022/06/18 03:29:07;;;;;;;2.08;0.50;;;18.20;94.20;;;;;;4304135;33;20072;-68
2022/06/18 03:31:34;;;;;;;0.37;0.37;;;18.20;94.30;;;;;;4302318;33;20101;-67
2022/06/18 03:34:00;;;;;;;0.40;0.40;;;18.30;94.20;;;;;;4302113;33;20072;-67
2022/06/18 03:36:25;;;;;;;0.40;0.40;;;18.30;94.20;;;;;;4303980;33;20441;-67
2022/06/18 03:38:51;;;;;;;0.55;0.40;;;18.40;94.40;;;;;;4303685;33;20513;-67
2022/06/18 03:41:19;;;;;;;0.75;0.30;;;18.40;94.10;;;;;;4291394;33;20092;-67
2022/06/18 03:43:44;;;;;;;0.40;0.40;;;18.50;93.70;;;;;;4288620;33;20096;-67
2022/06/18 03:46:13;;;;;;;0.60;0.60;;;18.50;93.80;;;;;;4303911;33;20071;-67
2022/06/18 03:48:45;;;;;;;2.08;0.80;;;18.50;93.70;;;;;;4302031;33;20089;-67
2022/06/18 03:51:12;;;;;;;0.50;0.50;;;18.50;93.80;;;;;;4291914;33;20100;-67
2022/06/18 03:53:38;;;;;;;0.40;0.40;;;18.50;93.90;;;;;;4280428;33;20080;-67
2022/06/18 03:56:04;;;;;;;2.65;1.35;;;18.50;93.80;;;;;;4303826;33;20095;-67
2022/06/18 03:58:30;;;;;;;0.43;0.43;;;18.70;93.50;;;;;;4304343;33;20076;-67
2022/06/18 04:00:55;;;;;;;0.70;0.68;;;18.70;93.40;;;;;;4303348;33;20076;-67
2022/06/18 04:03:21;;;;;;;1.40;0.70;;;18.70;93.40;;;;;;4301907;33;20080;-67
2022/06/18 04:05:47;;;;;;;0.40;0.40;;;18.70;93.60;;;;;;4301396;33;20482;-67
2022/06/18 04:08:14;;;;;;;0.40;0.40;;;18.80;93.20;;;;;;4303888;33;20096;-68
2022/06/18 04:10:40;;;;;;;0.20;0.20;;;19.00;93.20;;;;;;4302338;33;20135;-68
2022/06/18 04:13:06;;;;;;;0.30;0.30;;;18.90;93.50;;;;;;4304625;33;20299;-68
2022/06/18 04:15:31;;;;;;;1.95;0.50;;;18.90;93.70;;;;;;4303421;33;20145;-68
2022/06/18 04:17:57;;;;;;;0.65;0.60;;;18.90;93.90;;;;;;4303707;33;20519;-67
2022/06/18 04:20:26;;;;;;;0.32;0.30;;;18.90;93.40;;;;;;4301535;33;20137;-67
2022/06/18 04:22:52;;;;;;;0.30;0.30;;;19.00;93.20;;;;;;4268873;33;20087;-67
2022/06/18 04:25:18;;;;;;;0.30;0.30;;;19.10;93.00;;;;;;4296559;33;20449;-67
2022/06/18 04:27:44;;;;;;;0.22;0.22;;;19.10;92.90;;;;;;4302697;33;20465;-67
2022/06/18 04:30:11;;;;;;;0.50;0.50;;;19.30;92.80;;;;;;4300583;33;20099;-67
2022/06/18 04:32:37;;;;;;;0.30;0.30;;;19.30;92.70;;;;;;4301961;33;20088;-67
2022/06/18 04:35:04;;;;;;;1.20;0.73;;;19.30;92.70;;;;;;4301659;33;20093;-67
2022/06/18 04:37:30;;;;;;;0.30;0.30;;;19.40;92.60;;;;;;4301012;33;20133;-67
2022/06/18 04:39:55;;;;;;;0.30;0.30;;;19.40;92.60;;;;;;4300621;33;20226;-67
2022/06/18 04:42:21;;;;;;;0.30;0.30;;;19.50;92.40;;;;;;4299814;33;20099;-67
2022/06/18 04:44:46;;;;;;;0.57;0.50;;;19.50;92.70;;;;;;4299439;33;20142;-67
2022/06/18 04:47:12;;;;;;;2.28;1.05;;;19.60;91.90;;;;;;4301458;33;20084;-67
2022/06/18 04:49:37;;;;;;;0.75;0.40;;;19.70;92.00;;;;;;4303496;33;20474;-67
2022/06/18 04:52:03;;;;;;;0.30;0.30;;;19.80;92.00;;;;;;4283619;33;20144;-67
2022/06/18 04:54:29;;;;;;;0.90;0.68;;;19.80;92.10;;;;;;4289426;33;20459;-68
2022/06/18 04:56:54;;;;;;;0.30;0.30;;;19.80;92.00;;;;;;4302879;33;20088;-68
2022/06/18 04:59:20;;;;;;;0.20;0.20;;;19.90;91.80;;;;;;4302448;33;20092;-68
2022/06/18 05:01:46;;;;;;;0.40;0.40;;;19.90;91.90;;;;;;4302375;33;20091;-68
2022/06/18 05:04:11;;;;;;;0.47;0.40;;;20.00;91.70;;;;;;4303699;33;20079;-68
2022/06/18 05:06:37;;;;;;;0.37;0.37;;;20.10;91.70;;;;;;4302455;33;20100;-68
2022/06/18 05:09:03;;;;;;;0.30;0.30;;;20.10;91.50;;;;;;4303862;33;20129;-68
2022/06/18 05:11:28;;;;;;;0.40;0.40;;;20.20;91.50;;;;;;4302073;33;20103;-68
2022/06/18 05:13:54;;;;;;;0.30;0.30;;;20.30;91.50;;;;;;4300790;33;20080;-68
2022/06/18 05:16:19;;;;;;;0.30;0.30;;;20.30;91.30;;;;;;4299992;33;20174;-68
2022/06/18 05:18:46;;;;;;;0.52;0.52;;;20.40;91.30;;;;;;4302790;33;20516;-68
2022/06/18 05:21:11;;;;;;;4.10;1.75;;;20.50;91.30;;;;;;4292195;33;20124;-67
2022/06/18 05:23:37;;;;;;;0.30;0.30;;;20.60;91.20;;;;;;4278674;33;20122;-67
2022/06/18 05:26:05;;;;;;;0.40;0.40;;;20.70;90.50;;;;;;4286961;33;20099;-67
2022/06/18 05:28:31;;;;;;;0.22;0.22;;;20.80;90.40;;;;;;4300084;33;20556;-67
2022/06/18 05:30:56;;;;;;;0.30;0.30;;;20.90;90.30;;;;;;4300992;33;20103;-68
2022/06/18 05:33:22;;;;;;;0.20;0.20;;;21.00;90.20;;;;;;4298684;33;20520;-68
2022/06/18 05:35:47;;;;;;;0.28;0.28;;;21.10;89.30;;;;;;4300855;33;20129;-68
2022/06/18 05:38:19;;;;;;;0.50;0.50;;;21.20;89.40;;;;;;4301335;33;20104;-68
2022/06/18 05:40:45;;;;;;;0.30;0.30;;;21.30;89.50;;;;;;4301357;33;20087;-68
2022/06/18 05:43:11;;;;;;;0.50;0.50;;;21.30;88.40;;;;;;4301444;33;20100;-68
2022/06/18 05:45:37;;;;;;;0.50;0.50;;;21.40;88.40;;;;;;4301266;33;20104;-67
2022/06/18 05:48:03;;;;;;;0.20;0.20;;;21.50;87.90;;;;;;4301295;33;20080;-67
2022/06/18 05:50:29;;;;;;;0.30;0.30;;;21.60;87.50;;;;;;4298859;33;20076;-67
2022/06/18 05:52:54;;;;;;;2.87;0.80;;;21.70;87.20;;;;;;4275431;33;20091;-67
2022/06/18 05:55:21;;;;;;;0.22;0.22;;;21.70;86.80;;;;;;4298350;33;20092;-67
2022/06/18 05:57:48;;;;;;;0.20;0.20;;;21.80;87.20;;;;;;4304752;33;20485;-67
2022/06/18 06:00:16;;;;;;;5.05;1.95;;;21.90;87.00;;;;;;4304206;33;20114;-68
2022/06/18 06:02:42;;;;;;;0.35;0.35;;;22.00;86.50;;;;;;4301878;33;20064;-68
2022/06/18 06:05:08;;;;;;;0.62;0.60;;;22.00;86.70;;;;;;4304429;33;20099;-68
2022/06/18 06:07:34;;;;;;;0.30;0.30;;;22.10;86.50;;;;;;4303467;33;20084;-67
2022/06/18 06:11:30;;;;;;;0.28;0.28;;;22.10;85.90;;;;;;4305610;33;20458;-68
2022/06/18 06:12:45;;;;;;;0.30;0.30;;;22.20;86.10;;;;;;4304545;33;20746;-67
2022/06/18 06:15:10;;;;;;;0.28;0.28;;;22.20;86.80;;;;;;4304165;33;20115;-67
2022/06/18 06:17:36;;;;;;;0.30;0.30;;;22.30;86.10;;;;;;4305898;33;20547;-67
2022/06/18 06:20:11;;;;;;;1.08;0.82;;;22.30;86.40;;;;;;4291479;33;20079;-67
2022/06/18 06:22:36;;;;;;;1.30;0.52;;;22.40;86.20;;;;;;4279119;33;20600;-67
2022/06/18 06:25:03;;;;;;;0.40;0.32;;;22.50;86.80;;;;;;4299862;33;20072;-68
2022/06/18 06:27:28;;;;;;;2.75;1.50;;;22.60;86.00;;;;;;4300169;33;20081;-68
2022/06/18 06:29:54;;;;;;;0.25;0.25;;;22.70;85.90;;;;;;4302894;33;20532;-68
2022/06/18 06:32:19;;;;;;;0.20;0.20;;;22.70;84.90;;;;;;4302878;33;20110;-68
2022/06/18 06:34:44;;;;;;;0.32;0.30;;;22.80;85.70;;;;;;4304550;33;20143;-68
2022/06/18 06:37:10;;;;;;;0.50;0.50;;;22.90;84.90;;;;;;4302633;33;20104;-68
2022/06/18 06:39:36;;;;;;;0.30;0.30;;;23.00;85.00;;;;;;4305054;33;20100;-68
2022/06/18 06:42:01;;;;;;;0.60;0.60;;;23.10;85.00;;;;;;4305340;33;20128;-68
2022/06/18 06:44:27;;;;;;;0.32;0.32;;;23.20;83.70;;;;;;4304747;33;20121;-68
2022/06/18 06:46:54;;;;;;;0.52;0.52;;;23.30;84.50;;;;;;4302789;33;20087;-68
2022/06/18 06:49:20;;;;;;;0.60;0.40;;;23.40;83.90;;;;;;4303101;33;20087;-68
2022/06/18 06:51:45;;;;;;;0.20;0.20;;;23.50;84.00;;;;;;4288868;33;20085;-68
2022/06/18 06:54:11;;;;;;;0.40;0.40;;;23.50;83.70;;;;;;4287938;33;20100;-68
2022/06/18 06:57:36;;;;;;;0.22;0.22;;;23.70;82.90;;;;;;4302432;33;21433;-68
2022/06/18 06:59:22;;;;;;;0.30;0.30;;;23.70;82.70;;;;;;4301726;33;20088;-68
2022/06/18 07:01:47;;;;;;;0.95;0.57;;;23.90;82.70;;;;;;4303730;33;20166;-68
2022/06/18 07:04:14;;;;;;;0.13;0.13;;;24.00;82.10;;;;;;4302574;33;20083;-68
2022/06/18 07:06:39;;;;;;;0.30;0.30;;;24.10;81.60;;;;;;4284289;33;20590;-68
2022/06/18 07:09:06;;;;;;;0.57;0.50;;;24.20;81.60;;;;;;4302125;33;20092;-68
2022/06/18 07:11:33;;;;;;;0.32;0.32;;;24.30;80.00;;;;;;4300922;33;20099;-68
2022/06/18 07:13:59;;;;;;;2.83;1.40;;;24.40;79.20;;;;;;4291461;33;20091;-68
2022/06/18 07:16:24;;;;;;;0.30;0.30;;;24.50;79.30;;;;;;4303902;33;20064;-68
2022/06/18 07:18:52;;;;;;;3.47;0.40;;;24.60;78.60;;;;;;4302219;33;20540;-68
2022/06/18 07:21:19;;;;;;;0.20;0.20;;;24.70;78.40;;;;;;4289990;33;20083;-68
2022/06/18 07:23:44;;;;;;;0.40;0.40;;;24.80;78.90;;;;;;4283241;33;20095;-68
2022/06/18 07:26:14;;;;;;;2.28;0.30;;;25.00;78.60;;;;;;4302467;33;20099;-68
2022/06/18 07:28:40;;;;;;;2.12;0.90;;;25.10;78.10;;;;;;4301544;33;20096;-68
2022/06/18 07:31:05;;;;;;;0.20;0.20;;;25.20;77.70;;;;;;4303172;33;20694;-68
2022/06/18 07:33:35;;;;;;;0.30;0.30;;;25.30;77.40;;;;;;4304176;33;20088;-68
2022/06/18 07:36:00;;;;;;;0.40;0.40;;;25.40;76.00;;;;;;4289687;33;20068;-68
2022/06/18 07:38:26;;;;;;;0.10;0.10;;;25.50;76.60;;;;;;4302815;33;20343;-68
2022/06/18 07:40:55;;;;;;;0.20;0.20;;;25.60;77.20;;;;;;4301577;33;20220;-68
2022/06/18 07:43:35;;;;;;;0.20;0.20;;;25.80;76.00;;;;;;4299634;33;20156;-68
2022/06/18 07:46:02;;;;;;;0.28;0.28;;;26.00;75.80;;;;;;4300970;33;20092;-68
2022/06/18 07:48:28;;;;;;;1.23;0.60;;;26.10;75.10;;;;;;4299060;33;20532;-68
2022/06/18 07:50:53;;;;;;;0.47;0.45;;;26.20;74.80;;;;;;4282222;33;20076;-67
2022/06/18 07:53:21;;;;;;;0.15;0.15;;;26.30;74.40;;;;;;4279100;33;20152;-68
2022/06/18 07:55:47;;;;;;;0.55;0.30;;;26.40;75.30;;;;;;4299340;33;20164;-67
2022/06/18 07:58:13;;;;;;;0.30;0.30;;;26.60;75.60;;;;;;4301985;33;21266;-67
2022/06/18 08:00:40;;;;;;;0.75;0.52;;;26.80;74.90;;;;;;4301977;33;20107;-67
2022/06/18 08:03:07;;;;;;;0.22;0.20;;;27.00;74.40;;;;;;4300931;33;20150;-67
2022/06/18 08:05:33;;;;;;;0.45;0.45;;;27.20;73.60;;;;;;4300758;33;20104;-67
2022/06/18 08:07:59;;;;;;;0.10;0.10;;;27.30;73.20;;;;;;4302770;33;20083;-70
2022/06/18 08:10:24;;;;;;;1.92;0.40;;;27.30;72.00;;;;;;4300309;33;20127;-67
2022/06/18 08:12:50;;;;;;;2.72;1.25;;;27.40;72.60;;;;;;4301952;33;20573;-66
2022/06/18 08:15:15;;;;;;;0.20;0.20;;;27.60;72.30;;;;;;4302041;33;20079;-66
2022/06/18 08:17:41;;;;;;;0.47;0.30;;;27.70;72.10;;;;;;4302205;33;20068;-67
2022/06/18 08:20:08;;;;;;;0.10;0.10;;;27.80;71.80;;;;;;4301741;33;20476;-67
2022/06/18 08:22:35;;;;;;;0.37;0.37;;;28.00;71.90;;;;;;4275919;33;20100;-67
2022/06/18 08:25:01;;;;;;;0.28;0.28;;;28.10;71.30;;;;;;4295203;33;20125;-68
2022/06/18 08:27:27;;;;;;;0.15;0.15;;;28.00;71.50;;;;;;4299550;33;20204;-68
2022/06/18 08:29:53;;;;;;;0.10;0.10;;;28.20;71.10;;;;;;4302439;33;20572;-69
2022/06/18 08:32:18;;;;;;;0.30;0.30;;;28.30;71.30;;;;;;4302757;33;20091;-67
2022/06/18 08:34:43;;;;;;;1.65;0.20;;;28.50;71.90;;;;;;4302951;33;20079;-68
2022/06/18 08:37:09;;;;;;;0.00;0.00;;;28.60;71.90;;;;;;4302577;33;20089;-67
2022/06/18 08:39:38;;;;;;;0.10;0.10;;;28.60;70.60;;;;;;4299986;33;20080;-67
2022/06/18 08:42:31;;;;;;;0.62;0.47;;;28.80;71.30;;;;;;4302317;33;20076;-67
2022/06/18 08:45:21;;;;;;;0.47;0.30;;;28.90;70.90;;;;;;4300249;33;20183;-69
2022/06/18 08:47:52;;;;;;;0.10;0.10;;;28.80;71.20;;;;;;4302028;33;20063;-66
2022/06/18 08:50:38;;;;;;;0.20;0.20;;;28.90;70.90;;;;;;4301042;33;20088;-68
2022/06/18 08:53:43;;;;;;;0.90;0.40;;;29.00;72.00;;;;;;4277212;33;20172;-67
2022/06/18 08:56:18;;;;;;;0.95;0.30;;;29.10;70.80;;;;;;4291387;33;20088;-67
2022/06/18 08:58:58;;;;;;;0.20;0.20;;;29.10;70.20;;;;;;4285247;33;20099;-67
2022/06/18 09:01:30;;;;;;;0.10;0.10;;;29.10;71.50;;;;;;4302160;33;20080;-67
2022/06/18 09:04:21;;;;;;;0.60;0.45;;;29.10;70.30;;;;;;4299921;33;20179;-67
2022/06/18 09:07:03;;;;;;;0.20;0.20;;;29.10;70.70;;;;;;4301509;33;20079;-67
2022/06/18 09:10:09;;;;;;;0.50;0.50;;;29.30;71.00;;;;;;4302385;33;20132;-67
2022/06/18 09:12:44;;;;;;;0.20;0.13;;;29.30;70.70;;;;;;4291549;33;20083;-67
2022/06/18 09:15:24;;;;;;;0.62;0.20;;;29.40;70.70;;;;;;4300690;33;20584;-67
2022/06/18 09:18:00;;;;;;;0.00;0.00;;;29.50;70.60;;;;;;4303518;33;20067;-67
2022/06/18 09:20:30;;;;;;;0.22;0.22;;;29.60;69.80;;;;;;4301061;33;20111;-67
2022/06/18 09:23:04;;;;;;;0.13;0.13;;;29.60;70.30;;;;;;4272491;33;20210;-67
2022/06/18 09:25:38;;;;;;;0.32;0.32;;;29.70;69.70;;;;;;4299809;33;20116;-67
2022/06/18 09:28:06;;;;;;;0.28;0.28;;;29.70;69.20;;;;;;4299925;33;20091;-67
2022/06/18 09:30:42;;;;;;;0.10;0.10;;;29.60;69.10;;;;;;4290501;33;20540;-67
2022/06/18 09:33:13;;;;;;;0.25;0.25;;;29.80;69.40;;;;;;4304058;33;20115;-67
2022/06/18 09:36:01;;;;;;;0.30;0.30;;;29.90;68.40;;;;;;4302889;33;20071;-67
2022/06/18 09:38:49;;;;;;;5.32;0.20;;;29.90;68.10;;;;;;4302808;33;20087;-67
2022/06/18 09:41:21;;;;;;;1.85;0.62;;;30.00;68.60;;;;;;4301938;33;21017;-67
2022/06/18 09:43:53;;;;;;;0.10;0.10;;;30.30;68.60;;;;;;4302675;33;20542;-67
2022/06/18 09:46:23;;;;;;;0.60;0.50;;;30.40;68.50;;;;;;4304082;33;20063;-67
2022/06/18 09:48:48;;;;;;;0.13;0.13;;;30.40;68.70;;;;;;4303489;33;20120;-67
2022/06/18 09:51:39;;;;;;;0.30;0.30;;;30.40;68.00;;;;;;4296583;33;20603;-68
2022/06/18 09:54:07;;;;;;;9.80;0.40;;;30.60;68.40;;;;;;4285077;33;20091;-67
2022/06/18 09:56:38;;;;;;;0.20;0.20;;;30.70;67.80;;;;;;4303022;33;20528;-67
2022/06/18 09:59:08;;;;;;;;;;;30.80;68.00;;;;;;4301255;33;20128;-67
2022/06/18 10:01:40;;;;;;;0.40;0.40;;;30.90;67.80;;;;;;4305783;33;19947;-67
2022/06/18 10:06:53;;;;;;;2.12;0.75;;;31.10;66.90;;;;;;4301193;33;20092;-67
2022/06/18 10:09:24;;;;;;;0.62;0.52;;;31.30;67.70;;;;;;4305380;33;20060;-67
2022/06/18 10:11:50;;;;;;;0.30;0.30;;;31.40;67.00;;;;;;4304509;33;20072;-67
2022/06/18 10:14:19;;;;;;;0.90;0.47;;;31.40;67.00;;;;;;4300964;33;20465;-67
2022/06/18 10:17:01;;;;;;;4.12;0.22;;;31.50;67.20;;;;;;4302433;33;20210;-67
2022/06/18 10:20:03;;;;;;;2.00;0.73;;;31.70;67.00;;;;;;4302509;33;20602;-66
2022/06/18 10:23:10;;;;;;;0.28;0.28;;;31.60;66.40;;;;;;4280131;33;20064;-67
2022/06/18 10:26:07;;;;;;;0.10;0.10;;;31.70;66.40;;;;;;4300941;33;20112;-67
2022/06/18 10:29:08;;;;;;;0.20;0.20;;;31.80;66.00;;;;;;4303424;33;20135;-67
2022/06/18 10:31:54;;;;;;;2.95;0.47;;;31.90;67.20;;;;;;4296083;33;20096;-67
2022/06/18 10:34:41;;;;;;;0.20;0.20;;;32.10;67.00;;;;;;4304829;33;20077;-67
2022/06/18 10:37:19;;;;;;;0.10;0.10;;;32.40;66.40;;;;;;4293010;33;20093;-67
2022/06/18 10:40:05;;;;;;;0.20;0.20;;;32.90;66.20;;;;;;4302765;33;20588;-67
2022/06/18 10:42:43;;;;;;;0.65;0.45;;;32.90;65.50;;;;;;4301478;33;20107;-67
2022/06/18 10:45:30;;;;;;;0.05;0.05;;;33.00;64.20;;;;;;4302177;33;20544;-67
2022/06/18 10:47:56;;;;;;;0.20;0.20;;;33.00;64.80;;;;;;4303598;33;20540;-67
2022/06/18 10:50:24;;;;;;;0.20;0.20;;;33.00;63.60;;;;;;4302752;33;20141;-67
2022/06/18 10:53:11;;;;;;;1.40;0.75;;;33.30;62.20;;;;;;4278951;33;20094;-68
2022/06/18 10:55:36;;;;;;;0.00;0.00;;;33.30;62.60;;;;;;4299610;33;21128;-67
2022/06/18 10:58:18;;;;;;;0.20;0.20;;;33.60;62.60;;;;;;4301307;33;20061;-67
2022/06/18 11:01:11;;;;;;;0.55;0.55;;;33.40;62.60;;;;;;4302169;33;20532;-68
2022/06/18 11:03:37;;;;;;;0.17;0.17;;;33.40;63.00;;;;;;4303400;33;20075;-67
2022/06/18 11:06:10;;;;;;;0.15;0.13;;;33.40;61.50;;;;;;4302425;33;20152;-67
2022/06/18 11:08:37;;;;;;;0.10;0.10;;;33.60;61.90;;;;;;4302840;33;20064;-66
2022/06/18 11:11:08;;;;;;;0.70;0.40;;;33.90;59.70;;;;;;4303156;33;20584;-67
2022/06/18 11:13:38;;;;;;;0.35;0.35;;;34.00;59.90;;;;;;4305643;33;20092;-67
2022/06/18 11:16:22;;;;;;;0.22;0.20;;;34.10;59.60;;;;;;4301392;33;20450;-67
2022/06/18 11:18:53;;;;;;;0.10;0.10;;;34.00;60.10;;;;;;4304178;33;20088;-67
2022/06/18 11:21:23;;;;;;;0.30;0.30;;;34.20;60.80;;;;;;4293028;33;20321;-67
2022/06/18 11:23:55;;;;;;;0.30;0.30;;;34.20;59.50;;;;;;4282565;33;20112;-67
2022/06/18 11:26:22;;;;;;;2.50;1.12;;;34.30;59.40;;;;;;4299691;33;20071;-67
2022/06/18 11:28:51;;;;;;;0.35;0.30;;;34.70;59.20;;;;;;4303423;33;20096;-67
2022/06/18 11:31:29;;;;;;;0.20;0.20;;;35.20;58.20;;;;;;4301451;33;20079;-67
2022/06/18 11:34:00;;;;;;;1.75;0.85;;;35.50;58.10;;;;;;4303034;33;20108;-67
2022/06/18 11:36:44;;;;;;;0.43;0.43;;;35.60;56.90;;;;;;4301653;33;20071;-67
2022/06/18 11:39:26;;;;;;;0.60;0.55;;;35.70;56.70;;;;;;4289858;33;20145;-67
2022/06/18 11:41:59;;;;;;;1.00;0.77;;;35.60;56.60;;;;;;4301067;33;20103;-67
2022/06/18 11:44:31;;;;;;;0.20;0.20;;;35.70;56.80;;;;;;4302360;33;20056;-67
2022/06/18 11:47:08;;;;;;;0.50;0.50;;;36.10;56.70;;;;;;4302299;33;20112;-67
2022/06/18 11:49:40;;;;;;;0.65;0.40;;;36.20;55.90;;;;;;4296495;33;20087;-67
2022/06/18 11:52:23;;;;;;;2.42;1.05;;;36.20;55.50;;;;;;4281848;33;20959;-67
2022/06/18 11:55:16;;;;;;;2.05;0.85;;;36.20;55.10;;;;;;4294088;33;20489;-67
2022/06/18 11:57:52;;;;;;;0.57;0.32;;;36.30;55.20;;;;;;4298907;33;20127;-67
2022/06/18 12:00:22;;;;;;;0.30;0.30;;;36.40;55.10;;;;;;4302895;33;20087;-67
2022/06/18 12:02:56;;;;;;;0.50;0.50;;;36.80;55.40;;;;;;4301216;33;20161;-67
2022/06/18 12:05:32;;;;;;;0.40;0.40;;;37.20;55.50;;;;;;4301491;33;20100;-67
2022/06/18 12:07:59;;;;;;;0.47;0.47;;;37.30;55.10;;;;;;4301135;33;20307;-67
2022/06/18 12:10:47;;;;;;;0.28;0.28;;;37.20;54.40;;;;;;4303673;33;20067;-67
2022/06/18 12:13:41;;;;;;;0.70;0.40;;;37.50;54.20;;;;;;4297047;33;20076;-67
2022/06/18 12:16:21;;;;;;;0.73;0.73;;;37.60;54.20;;;;;;4301828;33;20145;-68
2022/06/18 12:19:12;;;;;;;0.52;0.43;;;38.10;55.00;;;;;;4302018;33;20266;-67
2022/06/18 12:22:03;;;;;;;9.57;1.02;;;38.50;53.10;;;;;;4286881;33;20075;-67
2022/06/18 12:24:51;;;;;;;5.55;1.40;;;38.50;53.20;;;;;;4291581;33;20187;-68
2022/06/18 12:27:23;;;;;;;5.65;1.50;;;38.40;52.40;;;;;;4300603;33;20072;-68
2022/06/18 12:30:13;;;;;;;10.45;1.35;;;38.20;52.60;;;;;;4300472;33;20080;-67
2022/06/18 12:32:53;;;;;;;2.92;1.33;;;38.40;51.90;;;;;;4301897;33;20084;-67
2022/06/18 12:35:37;;;;;;;0.45;0.45;;;38.30;51.70;;;;;;4303532;33;20087;-67
2022/06/18 12:38:23;;;;;;;6.00;1.90;;;37.50;52.60;;;;;;4301757;33;20109;-67
2022/06/18 12:40:57;;;;;;;0.20;0.20;;;37.70;52.90;;;;;;4299673;33;20087;-67
2022/06/18 12:43:33;;;;;;;0.62;0.62;;;38.30;52.30;;;;;;4299844;33;20091;-67
2022/06/18 12:46:03;;;;;;;1.12;1.02;;;38.30;51.70;;;;;;4300316;33;20417;-67
2022/06/18 12:48:59;;;;;;;1.05;0.68;;;38.20;52.00;;;;;;4300808;33;20169;-67
2022/06/18 12:51:33;;;;;;;3.40;0.82;;;38.50;52.00;;;;;;4289061;33;20099;-67
2022/06/18 12:54:09;;;;;;;2.55;1.27;;;38.80;52.20;;;;;;4281839;33;20088;-67
2022/06/18 12:56:50;;;;;;;2.17;0.85;;;38.80;52.00;;;;;;4301998;33;20085;-68
2022/06/18 12:59:30;;;;;;;0.65;0.65;;;38.60;51.90;;;;;;4304669;33;20076;-67
2022/06/18 13:02:12;;;;;;;2.55;1.45;;;38.30;52.10;;;;;;4303588;33;20914;-67
2022/06/18 13:04:57;;;;;;;1.37;1.20;;;38.30;52.70;;;;;;4301496;33;20158;-67
2022/06/18 13:07:50;;;;;;;2.25;1.45;;;38.80;51.70;;;;;;4301781;33;20080;-67
2022/06/18 13:10:39;;;;;;;2.75;1.08;;;39.10;51.00;;;;;;4301900;33;20163;-67
2022/06/18 13:13:20;;;;;;;2.58;1.20;;;39.10;51.00;;;;;;4291607;33;20069;-67
2022/06/18 13:15:51;;;;;;;0.68;0.55;;;39.40;50.80;;;;;;4302365;33;20096;-67